createdAt,value
2019-03-25T00:02:16.278Z,2.23
2019-03-25T00:04:44.960Z,2.20
2019-03-25T00:07:13.752Z,2.13
2019-03-25T00:09:42.543Z,2.18
2019-03-25T00:12:11.381Z,2.48
2019-03-25T00:14:40.014Z,2.70
2019-03-25T00:17:08.698Z,2.74
2019-03-25T00:19:37.283Z,2.66
2019-03-25T00:22:06.071Z,2.48
2019-03-25T00:24:38.995Z,2.36
2019-03-25T00:27:05.081Z,2.31
2019-03-25T00:29:33.767Z,2.40
2019-03-25T00:32:02.456Z,2.39
2019-03-25T00:34:31.139Z,2.35
2019-03-25T00:36:59.823Z,2.31
2019-03-25T00:39:28.399Z,2.45
2019-03-25T00:41:57.092Z,2.36
2019-03-25T00:44:25.777Z,2.61
2019-03-25T00:46:54.462Z,2.80
2019-03-25T00:49:23.038Z,2.92
2019-03-25T00:51:51.733Z,2.96
2019-03-25T00:54:20.418Z,3.14
2019-03-25T00:56:49.104Z,3.20
2019-03-25T00:59:17.682Z,3.19
2019-03-25T01:01:46.372Z,3.16
2019-03-25T01:04:15.062Z,3.20
2019-03-25T01:06:44.153Z,3.37
2019-03-25T01:09:12.948Z,3.33
2019-03-25T01:11:48.919Z,3.39
2019-03-25T01:14:12.061Z,3.41
2019-03-25T01:16:40.740Z,3.38
2019-03-25T01:19:09.528Z,3.28
2019-03-25T01:21:38.420Z,3.34
2019-03-25T01:24:07.109Z,3.10
2019-03-25T01:26:35.792Z,3.33
2019-03-25T01:29:04.559Z,3.30
2019-03-25T01:31:33.234Z,3.19
2019-03-25T01:34:01.851Z,3.28
2019-03-25T01:36:30.639Z,3.31
2019-03-25T01:38:59.427Z,3.41
2019-03-25T01:41:28.211Z,3.41
2019-03-25T01:43:56.897Z,3.41
2019-03-25T01:46:25.685Z,3.35
2019-03-25T01:48:54.478Z,3.29
2019-03-25T01:51:23.261Z,3.21
2019-03-25T01:53:52.058Z,3.22
2019-03-25T01:56:20.837Z,3.17
2019-03-25T01:58:49.628Z,3.12
2019-03-25T02:01:18.312Z,3.12
2019-03-25T02:03:47.100Z,3.11
2019-03-25T02:06:15.787Z,3.09
2019-03-25T02:08:44.478Z,3.02
2019-03-25T02:11:13.164Z,3.02
2019-03-25T02:13:41.744Z,3.05
2019-03-25T02:16:10.528Z,2.95
2019-03-25T02:18:39.111Z,2.86
2019-03-25T02:21:09.642Z,2.97
2019-03-25T02:23:38.333Z,3.03
2019-03-25T02:26:07.115Z,3.08
2019-03-25T02:28:35.801Z,3.15
2019-03-25T02:31:04.594Z,3.10
2019-03-25T02:33:33.279Z,3.07
2019-03-25T02:36:01.960Z,3.06
2019-03-25T02:38:30.648Z,3.04
2019-03-25T02:40:59.269Z,3.02
2019-03-25T02:43:28.123Z,3.03
2019-03-25T02:45:56.908Z,2.89
2019-03-25T02:48:25.597Z,2.82
2019-03-25T02:50:54.177Z,2.94
2019-03-25T02:53:22.861Z,2.73
2019-03-25T02:55:51.478Z,2.76
2019-03-25T02:58:20.139Z,2.84
2019-03-25T03:00:48.921Z,2.92
2019-03-25T03:03:17.607Z,2.91
2019-03-25T03:05:46.290Z,2.92
2019-03-25T03:08:15.288Z,2.74
2019-03-25T03:10:44.073Z,2.88
2019-03-25T03:13:12.762Z,3.11
2019-03-25T03:15:41.458Z,2.98
2019-03-25T03:18:10.848Z,2.99
2019-03-25T03:20:39.427Z,3.03
2019-03-25T03:23:08.115Z,2.96
2019-03-25T03:25:36.803Z,3.08
2019-03-25T03:28:05.588Z,3.14
2019-03-25T03:30:34.276Z,3.07
2019-03-25T03:33:02.956Z,2.89
2019-03-25T03:35:31.665Z,3.16
2019-03-25T03:38:00.336Z,3.15
2019-03-25T03:40:29.020Z,3.02
2019-03-25T03:42:57.704Z,2.86
2019-03-25T03:45:26.287Z,3.10
2019-03-25T03:47:54.983Z,2.86
2019-03-25T03:50:25.788Z,2.98
2019-03-25T03:52:54.609Z,2.85
2019-03-25T03:55:23.506Z,2.91
2019-03-25T03:57:52.992Z,2.92
2019-03-25T04:00:32.201Z,2.81
2019-03-25T04:03:01.276Z,2.70
2019-03-25T04:05:29.906Z,2.77
2019-03-25T04:07:58.710Z,2.89
2019-03-25T04:10:27.787Z,2.92
2019-03-25T04:12:57.497Z,2.86
2019-03-25T04:15:28.436Z,2.90
2019-03-25T04:17:57.489Z,2.97
2019-03-25T04:20:26.114Z,2.95
2019-03-25T04:22:54.833Z,3.01
2019-03-25T04:25:23.385Z,3.04
2019-03-25T04:27:52.075Z,3.06
2019-03-25T04:30:20.762Z,3.16
2019-03-25T04:32:49.444Z,3.18
2019-03-25T04:35:18.172Z,3.32
2019-03-25T04:37:46.912Z,3.31
2019-03-25T04:40:15.599Z,3.48
2019-03-25T04:42:44.285Z,3.47
2019-03-25T04:45:13.176Z,3.53
2019-03-25T04:47:41.863Z,3.57
2019-03-25T04:50:10.956Z,3.63
2019-03-25T04:52:39.644Z,3.64
2019-03-25T04:55:08.328Z,3.74
2019-03-25T04:57:37.116Z,3.71
2019-03-25T05:00:06.915Z,3.72
2019-03-25T05:02:35.614Z,3.72
2019-03-25T05:05:05.326Z,3.71
2019-03-25T05:07:34.214Z,3.73
2019-03-25T05:10:03.110Z,3.74
2019-03-25T05:12:31.794Z,3.70
2019-03-25T05:15:00.380Z,3.69
2019-03-25T05:17:29.162Z,3.70
2019-03-25T05:19:57.848Z,3.66
2019-03-25T05:22:26.531Z,3.69
2019-03-25T05:24:55.117Z,3.80
2019-03-25T05:27:23.802Z,3.75
2019-03-25T05:29:52.385Z,3.74
2019-03-25T05:32:21.176Z,3.94
2019-03-25T05:34:49.871Z,4.07
2019-03-25T05:37:18.651Z,4.10
2019-03-25T05:39:48.167Z,4.04
2019-03-25T05:42:16.824Z,3.96
2019-03-25T05:44:45.423Z,4.07
2019-03-25T05:47:14.208Z,4.07
2019-03-25T05:49:42.793Z,3.89
2019-03-25T05:52:11.479Z,3.98
2019-03-25T05:54:40.040Z,3.91
2019-03-25T05:57:08.851Z,4.00
2019-03-25T05:59:37.435Z,4.08
2019-03-25T06:02:06.224Z,4.05
2019-03-25T06:04:34.908Z,3.99
2019-03-25T06:07:03.703Z,4.13
2019-03-25T06:09:32.491Z,4.04
2019-03-25T06:12:01.185Z,3.73
2019-03-25T06:14:29.964Z,3.67
2019-03-25T06:16:58.640Z,3.63
2019-03-25T06:19:27.336Z,3.52
2019-03-25T06:21:56.021Z,3.41
2019-03-25T06:24:24.808Z,3.35
2019-03-25T06:26:53.598Z,3.27
2019-03-25T06:29:22.185Z,3.41
2019-03-25T06:31:50.840Z,3.22
2019-03-25T06:34:19.452Z,3.33
2019-03-25T06:36:48.237Z,3.34
2019-03-25T06:39:16.927Z,3.14
2019-03-25T06:41:45.608Z,3.15
2019-03-25T06:44:14.396Z,2.98
2019-03-25T06:46:42.983Z,3.20
2019-03-25T06:49:11.767Z,3.01
2019-03-25T06:51:40.557Z,3.06
2019-03-25T06:54:09.343Z,3.21
2019-03-25T06:56:38.029Z,2.91
2019-03-25T06:59:06.817Z,2.94
2019-03-25T07:01:35.507Z,2.90
2019-03-25T07:04:04.190Z,2.90
2019-03-25T07:06:32.774Z,2.83
2019-03-25T07:09:01.439Z,2.90
2019-03-25T07:11:30.554Z,3.02
2019-03-25T07:13:59.345Z,3.04
2019-03-25T07:16:28.027Z,3.00
2019-03-25T07:18:56.815Z,3.16
2019-03-25T07:21:25.607Z,3.04
2019-03-25T07:23:54.390Z,3.24
2019-03-25T07:26:23.177Z,3.18
2019-03-25T07:28:51.865Z,3.40
2019-03-25T07:31:20.654Z,3.44
2019-03-25T07:33:49.336Z,3.51
2019-03-25T07:36:18.124Z,3.51
2019-03-25T07:38:46.814Z,3.64
2019-03-25T07:41:17.135Z,3.75
2019-03-25T07:43:45.923Z,3.82
2019-03-25T07:46:15.119Z,3.88
2019-03-25T07:48:43.805Z,3.96
2019-03-25T07:51:12.387Z,3.89
2019-03-25T07:53:41.177Z,3.75
2019-03-25T07:56:09.783Z,4.01
2019-03-25T07:58:38.446Z,4.05
2019-03-25T08:01:07.038Z,3.93
2019-03-25T08:03:35.712Z,4.11
2019-03-25T08:06:04.413Z,4.05
2019-03-25T08:08:33.093Z,4.06
2019-03-25T08:11:01.774Z,4.20
2019-03-25T08:13:30.456Z,4.38
2019-03-25T08:15:59.139Z,4.67
2019-03-25T08:18:27.827Z,4.73
2019-03-25T08:20:56.409Z,4.90
2019-03-25T08:23:25.095Z,4.63
2019-03-25T08:25:53.784Z,4.67
2019-03-25T08:28:22.467Z,4.69
2019-03-25T08:30:51.050Z,4.85
2019-03-25T08:33:19.735Z,4.78
2019-03-25T08:35:49.446Z,4.70
2019-03-25T08:38:18.232Z,4.84
2019-03-25T08:40:46.815Z,4.86
2019-03-25T08:43:15.501Z,4.64
2019-03-25T08:45:44.076Z,4.79
2019-03-25T08:48:12.781Z,4.93
2019-03-25T08:50:41.762Z,5.02
2019-03-25T08:53:10.347Z,5.08
2019-03-25T08:55:39.037Z,5.22
2019-03-25T08:58:12.327Z,5.16
2019-03-25T09:00:38.354Z,5.27
2019-03-25T09:03:07.036Z,4.87
2019-03-25T09:05:35.926Z,4.94
2019-03-25T09:08:04.611Z,5.06
2019-03-25T09:10:33.303Z,5.13
2019-03-25T09:13:02.086Z,5.04
2019-03-25T09:15:30.873Z,5.45
2019-03-25T09:17:59.660Z,5.45
2019-03-25T09:20:28.300Z,5.80
2019-03-25T09:22:56.931Z,5.83
2019-03-25T09:25:25.619Z,5.95
2019-03-25T09:27:54.403Z,6.65
2019-03-25T09:30:53.611Z,6.71
2019-03-25T09:33:22.599Z,6.61
2019-03-25T09:35:52.096Z,6.47
2019-03-25T09:38:20.894Z,6.83
2019-03-25T09:40:49.583Z,6.55
2019-03-25T09:43:18.266Z,6.36
2019-03-25T09:45:47.362Z,6.44
2019-03-25T09:48:16.046Z,6.58
2019-03-25T09:50:44.729Z,6.71
2019-03-25T09:53:13.723Z,6.68
2019-03-25T09:55:42.407Z,6.81
2019-03-25T09:58:11.099Z,7.09
2019-03-25T10:00:39.675Z,6.91
2019-03-25T10:03:08.370Z,6.86
2019-03-25T10:05:37.253Z,7.10
2019-03-25T10:08:06.149Z,7.52
2019-03-25T10:10:34.932Z,7.05
2019-03-25T10:13:03.626Z,6.99
2019-03-25T10:15:32.200Z,7.28
2019-03-25T10:18:00.988Z,6.77
2019-03-25T10:20:29.575Z,6.86
2019-03-25T10:22:58.258Z,6.76
2019-03-25T10:25:26.841Z,6.74
2019-03-25T10:27:55.530Z,6.53
2019-03-25T10:30:24.725Z,6.38
2019-03-25T10:32:53.513Z,6.32
2019-03-25T10:35:22.199Z,6.59
2019-03-25T10:37:51.079Z,6.97
2019-03-25T10:40:19.775Z,7.19
2019-03-25T10:42:48.666Z,6.90
2019-03-25T10:45:19.091Z,7.00
2019-03-25T10:47:48.605Z,7.24
2019-03-25T10:50:17.384Z,6.89
2019-03-25T10:52:46.173Z,7.63
2019-03-25T10:55:15.374Z,8.40
2019-03-25T10:57:44.055Z,8.36
2019-03-25T11:00:14.689Z,7.82
2019-03-25T11:02:43.373Z,7.48
2019-03-25T11:05:13.088Z,6.77
2019-03-25T11:10:12.257Z,8.16
2019-03-25T11:12:40.993Z,8.91
2019-03-25T11:15:11.850Z,9.46
2019-03-25T11:17:40.611Z,10.15
2019-03-25T11:20:10.634Z,11.51
2019-03-25T11:22:39.822Z,11.71
2019-03-25T11:25:10.863Z,10.16
2019-03-25T11:27:39.548Z,9.04
2019-03-25T11:30:10.296Z,8.64
2019-03-25T11:32:39.076Z,8.57
2019-03-25T11:35:09.467Z,8.75
2019-03-25T11:37:38.182Z,8.13
2019-03-25T11:40:11.090Z,9.28
2019-03-25T11:42:39.855Z,11.75
2019-03-25T11:45:09.565Z,13.91
2019-03-25T11:47:38.368Z,14.22
2019-03-25T11:50:08.160Z,15.63
2019-03-25T11:52:37.682Z,14.86
2019-03-25T11:55:06.871Z,16.31
2019-03-25T11:57:35.759Z,16.82
2019-03-25T12:00:07.249Z,15.28
2019-03-25T12:02:35.894Z,16.21
2019-03-25T12:05:06.834Z,15.80
2019-03-25T12:07:35.626Z,18.18
2019-03-25T12:10:05.835Z,17.49
2019-03-25T12:12:34.527Z,17.57
2019-03-25T12:15:04.034Z,17.22
2019-03-25T12:17:32.718Z,18.33
2019-03-25T12:20:01.411Z,17.77
2019-03-25T12:22:30.193Z,15.95
2019-03-25T12:24:58.778Z,13.20
2019-03-25T12:27:27.601Z,11.55
2019-03-25T12:29:56.205Z,10.74
2019-03-25T12:32:24.893Z,10.27
2019-03-25T12:34:53.523Z,10.71
2019-03-25T12:37:22.204Z,13.79
2019-03-25T12:39:50.993Z,11.93
2019-03-25T12:42:19.575Z,9.63
2019-03-25T12:44:48.158Z,9.07
2019-03-25T12:47:16.949Z,8.59
2019-03-25T12:49:45.620Z,9.08
2019-03-25T12:52:14.318Z,9.46
2019-03-25T12:54:43.030Z,12.02
2019-03-25T12:57:11.689Z,16.02
2019-03-25T12:59:41.585Z,15.87
2019-03-25T13:02:11.313Z,17.39
2019-03-25T13:04:39.898Z,18.14
2019-03-25T13:07:08.549Z,17.51
2019-03-25T13:09:37.166Z,12.81
2019-03-25T13:12:05.955Z,11.78
2019-03-25T13:14:35.297Z,12.64
2019-03-25T13:17:04.247Z,12.97
2019-03-25T13:19:32.921Z,11.66
2019-03-25T13:22:01.618Z,10.51
2019-03-25T13:24:30.201Z,9.88
2019-03-25T13:26:58.851Z,10.04
2019-03-25T13:29:27.470Z,9.92
2019-03-25T13:31:56.158Z,9.32
2019-03-25T13:34:24.829Z,9.07
2019-03-25T13:36:53.522Z,8.96
2019-03-25T13:39:22.316Z,8.88
2019-03-25T13:41:51.000Z,8.88
2019-03-25T13:44:19.545Z,8.14
2019-03-25T13:46:48.270Z,8.20
2019-03-25T13:49:16.852Z,8.14
2019-03-25T13:51:45.528Z,7.65
2019-03-25T13:54:14.123Z,7.50
2019-03-25T13:56:42.808Z,7.45
2019-03-25T13:59:11.460Z,7.40
2019-03-25T14:01:40.180Z,7.21
2019-03-25T14:04:08.731Z,6.75
2019-03-25T14:06:37.451Z,6.57
2019-03-25T14:09:07.585Z,6.58
2019-03-25T14:11:36.254Z,6.60
2019-03-25T14:14:04.817Z,6.61
2019-03-25T14:16:33.527Z,6.87
2019-03-25T14:19:02.312Z,6.82
2019-03-25T14:21:31.002Z,6.87
2019-03-25T14:23:59.648Z,6.84
2019-03-25T14:26:28.267Z,7.09
2019-03-25T14:28:56.809Z,7.34
2019-03-25T14:31:25.637Z,7.21
2019-03-25T14:33:54.220Z,7.31
2019-03-25T14:36:23.011Z,7.81
2019-03-25T14:38:51.593Z,8.17
2019-03-25T14:41:20.285Z,8.23
2019-03-25T14:43:48.934Z,8.07
2019-03-25T14:46:17.753Z,8.17
2019-03-25T14:48:46.438Z,8.15
2019-03-25T14:51:15.126Z,8.27
2019-03-25T14:53:45.270Z,9.10
2019-03-25T14:56:14.067Z,8.68
2019-03-25T14:58:42.718Z,8.59
2019-03-25T15:01:11.404Z,8.54
2019-03-25T15:03:40.092Z,8.09
2019-03-25T15:06:08.773Z,7.82
2019-03-25T15:08:37.357Z,7.93
2019-03-25T15:11:06.149Z,7.75
2019-03-25T15:13:35.039Z,7.74
2019-03-25T15:16:03.826Z,7.52
2019-03-25T15:18:32.408Z,7.31
2019-03-25T15:21:01.095Z,7.46
2019-03-25T15:23:29.782Z,7.49
2019-03-25T15:25:58.471Z,7.40
2019-03-25T15:28:29.097Z,7.29
2019-03-25T15:30:57.780Z,7.26
2019-03-25T15:33:26.370Z,7.42
2019-03-25T15:35:55.062Z,7.33
2019-03-25T15:38:25.462Z,7.23
2019-03-25T15:40:54.059Z,7.24
2019-03-25T15:43:22.642Z,7.31
2019-03-25T15:45:52.208Z,7.34
2019-03-25T15:48:20.896Z,7.27
2019-03-25T15:50:50.133Z,7.33
2019-03-25T15:53:18.817Z,7.32
2019-03-25T15:55:47.504Z,7.23
2019-03-25T15:58:25.606Z,7.14
2019-03-25T16:00:48.265Z,7.17
2019-03-25T16:03:16.839Z,7.07
2019-03-25T16:05:45.523Z,7.02
2019-03-25T16:08:14.110Z,7.20
2019-03-25T16:10:42.795Z,7.37
2019-03-25T16:13:11.439Z,7.29
2019-03-25T16:15:42.324Z,7.29
2019-03-25T16:18:12.973Z,7.37
2019-03-25T16:20:41.634Z,7.44
2019-03-25T16:23:10.320Z,7.48
2019-03-25T16:25:39.005Z,7.44
2019-03-25T16:28:07.689Z,7.46
2019-03-25T16:30:36.274Z,7.36
2019-03-25T16:33:04.961Z,7.32
2019-03-25T16:35:33.547Z,7.25
2019-03-25T16:38:02.335Z,7.20
2019-03-25T16:40:31.125Z,7.13
2019-03-25T16:42:59.803Z,7.20
2019-03-25T16:45:28.391Z,7.19
2019-03-25T16:47:57.143Z,7.01
2019-03-25T16:50:25.862Z,6.93
2019-03-25T16:52:54.551Z,6.84
2019-03-25T16:55:23.236Z,6.73
2019-03-25T16:57:52.026Z,6.69
2019-03-25T17:00:27.203Z,6.69
2019-03-25T17:02:51.036Z,6.77
2019-03-25T17:05:19.684Z,6.69
2019-03-25T17:07:48.418Z,6.39
2019-03-25T17:10:17.189Z,6.57
2019-03-25T17:12:45.986Z,6.33
2019-03-25T17:15:15.084Z,6.37
2019-03-25T17:17:43.762Z,6.45
2019-03-25T17:20:12.760Z,6.38
2019-03-25T17:22:41.547Z,6.26
2019-03-25T17:25:10.949Z,6.20
2019-03-25T17:27:39.736Z,6.10
2019-03-25T17:30:14.162Z,5.98
2019-03-25T17:32:42.944Z,6.00
2019-03-25T17:35:12.030Z,5.99
2019-03-25T17:37:41.020Z,5.92
2019-03-25T17:40:10.320Z,5.85
2019-03-25T17:42:39.120Z,5.84
2019-03-25T17:45:09.243Z,5.84
2019-03-25T17:47:38.038Z,5.71
2019-03-25T17:50:09.939Z,5.72
2019-03-25T17:52:38.572Z,5.47
2019-03-25T17:55:07.773Z,5.47
2019-03-25T17:57:36.462Z,5.32
2019-03-25T18:00:10.466Z,5.51
2019-03-25T18:02:39.258Z,5.41
2019-03-25T18:05:09.170Z,5.58
2019-03-25T18:07:37.958Z,5.67
2019-03-25T18:10:08.316Z,5.71
2019-03-25T18:12:39.028Z,5.65
2019-03-25T18:15:11.207Z,5.68
2019-03-25T18:17:39.870Z,5.76
2019-03-25T18:20:19.043Z,6.15
2019-03-25T18:22:49.642Z,6.05
2019-03-25T18:25:18.417Z,6.26
2019-03-25T18:27:51.945Z,6.15
2019-03-25T18:30:33.309Z,6.37
2019-03-25T18:33:02.432Z,6.35
2019-03-25T18:35:31.298Z,6.25
2019-03-25T18:38:00.185Z,6.45
2019-03-25T18:40:29.079Z,6.47
2019-03-25T18:42:58.077Z,6.52
2019-03-25T18:45:26.962Z,6.60
2019-03-25T18:47:55.854Z,6.55
2019-03-25T18:50:24.751Z,6.57
2019-03-25T18:52:56.768Z,6.39
2019-03-25T18:55:25.291Z,6.30
2019-03-25T18:57:54.281Z,6.26
2019-03-25T19:00:32.695Z,6.23
2019-03-25T19:03:05.606Z,6.13
2019-03-25T19:05:34.600Z,6.21
2019-03-25T19:08:05.207Z,6.05
2019-03-25T19:10:35.529Z,6.05
2019-03-25T19:13:04.554Z,6.09
2019-03-25T19:15:33.435Z,6.00
2019-03-25T19:18:02.210Z,6.04
2019-03-25T19:20:31.219Z,5.95
2019-03-25T19:23:00.198Z,5.86
2019-03-25T19:25:29.200Z,5.94
2019-03-25T19:27:58.079Z,5.90
2019-03-25T19:30:26.963Z,5.78
2019-03-25T19:32:55.950Z,5.68
2019-03-25T19:35:24.859Z,5.65
2019-03-25T19:37:53.766Z,5.63
2019-03-25T19:40:22.745Z,5.60
2019-03-25T19:42:51.614Z,5.62
2019-03-25T19:45:20.646Z,5.55
2019-03-25T19:47:49.498Z,5.38
2019-03-25T19:50:18.644Z,5.33
2019-03-25T19:52:47.688Z,5.25
2019-03-25T19:55:16.724Z,5.29
2019-03-25T19:57:45.590Z,5.21
2019-03-25T20:00:15.265Z,5.13
2019-03-25T20:02:44.179Z,5.12
2019-03-25T20:05:13.278Z,5.13
2019-03-25T20:07:42.157Z,5.14
2019-03-25T20:10:16.907Z,5.09
2019-03-25T20:12:46.493Z,5.04
2019-03-25T20:15:15.414Z,5.03
2019-03-25T20:17:44.294Z,5.04
2019-03-25T20:20:13.607Z,4.94
2019-03-25T20:22:42.590Z,4.97
2019-03-25T20:25:11.572Z,4.94
2019-03-25T20:27:40.489Z,4.84
2019-03-25T20:30:12.933Z,4.81
2019-03-25T20:32:41.855Z,4.89
2019-03-25T20:35:10.803Z,4.78
2019-03-25T20:37:39.619Z,4.69
2019-03-25T20:40:08.581Z,4.66
2019-03-25T20:42:37.288Z,4.71
2019-03-25T20:45:07.619Z,4.66
2019-03-25T20:47:36.376Z,4.53
2019-03-25T20:50:06.598Z,4.56
2019-03-25T20:52:35.367Z,4.52
2019-03-25T20:55:05.825Z,4.60
2019-03-25T20:57:34.511Z,4.54
2019-03-25T21:00:04.106Z,4.39
2019-03-25T21:02:44.493Z,4.36
2019-03-25T21:05:03.031Z,4.50
2019-03-25T21:07:31.804Z,4.50
2019-03-25T21:10:00.610Z,4.35
2019-03-25T21:12:29.216Z,4.22
2019-03-25T21:14:57.838Z,4.24
2019-03-25T21:17:26.544Z,4.17
2019-03-25T21:19:55.126Z,4.32
2019-03-25T21:22:23.835Z,4.39
2019-03-25T21:24:52.397Z,4.26
2019-03-25T21:27:21.082Z,4.31
2019-03-25T21:29:49.669Z,4.20
2019-03-25T21:32:18.433Z,4.21
2019-03-25T21:34:47.244Z,4.16
2019-03-25T21:37:16.066Z,4.16
2019-03-25T21:39:44.757Z,3.98
2019-03-25T21:42:13.588Z,3.88
2019-03-25T21:44:42.217Z,3.83
2019-03-25T21:47:10.874Z,3.96
2019-03-25T21:49:39.568Z,3.72
2019-03-25T21:52:08.300Z,3.63
2019-03-25T21:54:37.160Z,3.58
2019-03-25T21:57:05.892Z,3.57
2019-03-25T21:59:34.530Z,3.64
2019-03-25T22:02:03.194Z,3.57
2019-03-25T22:04:31.881Z,3.61
2019-03-25T22:07:00.672Z,3.59
2019-03-25T22:09:29.236Z,3.60
2019-03-25T22:11:58.041Z,3.56
2019-03-25T22:14:26.726Z,3.61
2019-03-25T22:16:55.513Z,3.48
2019-03-25T22:19:24.200Z,3.45
2019-03-25T22:21:54.413Z,3.43
2019-03-25T22:24:23.082Z,3.38
2019-03-25T22:26:51.794Z,3.20
2019-03-25T22:29:20.480Z,3.25
2019-03-25T22:31:49.164Z,3.44
2019-03-25T22:34:17.858Z,3.25
2019-03-25T22:36:46.535Z,3.33
2019-03-25T22:39:15.145Z,3.24
2019-03-25T22:41:43.804Z,3.21
2019-03-25T22:44:12.490Z,3.11
2019-03-25T22:46:41.176Z,3.19
2019-03-25T22:49:10.059Z,3.22
2019-03-25T22:51:38.645Z,3.11
2019-03-25T22:54:07.335Z,3.16
2019-03-25T22:56:36.020Z,3.21
2019-03-25T22:59:04.911Z,3.20
2019-03-25T23:01:33.599Z,3.26
2019-03-25T23:04:02.290Z,3.16
2019-03-25T23:06:30.868Z,3.11
2019-03-25T23:08:59.560Z,3.13
2019-03-25T23:11:28.240Z,3.16
2019-03-25T23:13:56.924Z,3.03
2019-03-25T23:16:25.509Z,3.16
2019-03-25T23:18:54.193Z,2.97
2019-03-25T23:21:22.878Z,3.24
2019-03-25T23:23:51.535Z,3.20
2019-03-25T23:26:20.217Z,3.32
2019-03-25T23:28:49.012Z,3.49
2019-03-25T23:31:17.621Z,3.60
2019-03-25T23:33:52.068Z,3.63
2019-03-25T23:36:16.630Z,3.71
2019-03-25T23:38:45.421Z,3.87
2019-03-25T23:41:14.090Z,3.84
2019-03-25T23:43:42.825Z,4.00
2019-03-25T23:46:12.500Z,3.94
2019-03-25T23:48:41.186Z,3.97
2019-03-25T23:51:09.757Z,3.94
2019-03-25T23:53:38.559Z,4.02
2019-03-25T23:56:07.242Z,4.02
2019-03-25T23:58:35.928Z,4.03
